Snoqualmie River: Middle Fork station

back to: Snoqualmie river
Middle Fork station Summary - (NOAA Hydrograph: TANW1)
Latest reading:
Wed09/19 10:15 am 1.24 ft 202 cfs (-8/hr)
Past 24hr max:
Tue09/18 10:15 am 1.44 ft 246 cfs
Forecasted crests: (published Tue 09/18/18 02:28 pm)
Wed09/19 11:00 pm 1.12 ft 178 cfs
Sat09/22 05:00 am 3.68 ft 1222 cfs

Middle Fork station Details

Latest Readings

Last 100 Readings:
Wed09/19 10:15 am 1.24 ft 202 cfs
Wed09/19 10:00 am 1.25 ft 204 cfs
Wed09/19 09:45 am 1.24 ft 202 cfs
Wed09/19 09:30 am 1.25 ft 204 cfs
Wed09/19 09:15 am 1.25 ft 204 cfs
Wed09/19 09:00 am 1.26 ft 206 cfs
Wed09/19 08:45 am 1.25 ft 204 cfs
Wed09/19 08:30 am 1.26 ft 206 cfs
Wed09/19 08:15 am 1.24 ft 202 cfs
Wed09/19 08:00 am 1.24 ft 202 cfs
Wed09/19 07:45 am 1.25 ft 204 cfs
Wed09/19 07:30 am 1.25 ft 204 cfs
Wed09/19 07:15 am 1.24 ft 202 cfs
Wed09/19 07:00 am 1.25 ft 204 cfs
Wed09/19 06:45 am 1.26 ft 206 cfs
Wed09/19 06:30 am 1.28 ft 210 cfs
Wed09/19 06:15 am 1.26 ft 206 cfs
Wed09/19 06:00 am 1.28 ft 210 cfs
Wed09/19 05:45 am 1.26 ft 206 cfs
Wed09/19 05:30 am 1.27 ft 208 cfs
Wed09/19 05:15 am 1.28 ft 210 cfs
Wed09/19 05:00 am 1.29 ft 212 cfs
Wed09/19 04:45 am 1.28 ft 210 cfs
Wed09/19 04:30 am 1.28 ft 210 cfs
Wed09/19 04:15 am 1.29 ft 212 cfs
Wed09/19 04:00 am 1.29 ft 212 cfs
Wed09/19 03:45 am 1.27 ft 208 cfs
Wed09/19 03:30 am 1.28 ft 210 cfs
Wed09/19 03:15 am 1.28 ft 210 cfs
Wed09/19 03:00 am 1.29 ft 212 cfs
Wed09/19 02:45 am 1.29 ft 212 cfs
Wed09/19 02:30 am 1.3 ft 214 cfs
Wed09/19 02:15 am 1.3 ft 214 cfs
Wed09/19 02:00 am 1.31 ft 217 cfs
Wed09/19 01:45 am 1.3 ft 214 cfs
Wed09/19 01:30 am 1.31 ft 217 cfs
Wed09/19 01:15 am 1.32 ft 219 cfs
Wed09/19 01:00 am 1.31 ft 217 cfs
Wed09/19 12:45 am 1.33 ft 221 cfs
Wed09/19 12:30 am 1.33 ft 221 cfs
Wed09/19 12:15 am 1.31 ft 217 cfs
Wed09/19 12:00 am 1.31 ft 217 cfs
Tue09/18 11:45 pm 1.31 ft 217 cfs
Tue09/18 11:30 pm 1.32 ft 219 cfs
Tue09/18 11:15 pm 1.33 ft 221 cfs
Tue09/18 11:00 pm 1.31 ft 217 cfs
Tue09/18 10:45 pm 1.33 ft 221 cfs
Tue09/18 10:30 pm 1.33 ft 221 cfs
Tue09/18 10:15 pm 1.33 ft 221 cfs
Tue09/18 10:00 pm 1.31 ft 217 cfs
Tue09/18 09:45 pm 1.35 ft 225 cfs
Tue09/18 09:30 pm 1.35 ft 225 cfs
Tue09/18 09:15 pm 1.35 ft 225 cfs
Tue09/18 09:00 pm 1.33 ft 221 cfs
Tue09/18 08:45 pm 1.33 ft 221 cfs
Tue09/18 08:30 pm 1.35 ft 225 cfs
Tue09/18 08:15 pm 1.34 ft 223 cfs
Tue09/18 08:00 pm 1.36 ft 228 cfs
Tue09/18 07:45 pm 1.36 ft 228 cfs
Tue09/18 07:30 pm 1.36 ft 228 cfs
Tue09/18 07:15 pm 1.37 ft 230 cfs
Tue09/18 07:02 pm 1.36 ft 228 cfs
Tue09/18 07:00 pm 1.36 ft 228 cfs
Tue09/18 06:45 pm 1.36 ft 228 cfs
Tue09/18 06:30 pm 1.36 ft 228 cfs
Tue09/18 06:15 pm 1.38 ft 232 cfs
Tue09/18 06:00 pm 1.38 ft 232 cfs
Tue09/18 05:45 pm 1.38 ft 232 cfs
Tue09/18 05:30 pm 1.37 ft 230 cfs
Tue09/18 05:15 pm 1.38 ft 232 cfs
Tue09/18 05:00 pm 1.38 ft 232 cfs
Tue09/18 04:45 pm 1.38 ft 232 cfs
Tue09/18 04:30 pm 1.39 ft 234 cfs
Tue09/18 04:15 pm 1.39 ft 234 cfs
Tue09/18 04:00 pm 1.39 ft 234 cfs
Tue09/18 03:45 pm 1.39 ft 234 cfs
Tue09/18 03:30 pm 1.41 ft 239 cfs
Tue09/18 03:15 pm 1.39 ft 234 cfs
Tue09/18 03:00 pm 1.41 ft 239 cfs
Tue09/18 02:45 pm 1.39 ft 234 cfs
Tue09/18 02:30 pm 1.41 ft 239 cfs
Tue09/18 02:15 pm 1.42 ft 241 cfs
Tue09/18 02:00 pm 1.39 ft 234 cfs
Tue09/18 01:45 pm 1.41 ft 239 cfs
Tue09/18 01:30 pm 1.42 ft 241 cfs
Tue09/18 01:15 pm 1.41 ft 239 cfs
Tue09/18 01:00 pm 1.43 ft 244 cfs
Tue09/18 12:45 pm 1.42 ft 241 cfs
Tue09/18 12:30 pm 1.42 ft 241 cfs
Tue09/18 12:15 pm 1.44 ft 246 cfs
Tue09/18 12:00 pm 1.44 ft 246 cfs
Tue09/18 11:45 am 1.44 ft 246 cfs
Tue09/18 11:30 am 1.44 ft 246 cfs
Tue09/18 11:15 am 1.43 ft 244 cfs
Tue09/18 11:00 am 1.43 ft 244 cfs
Tue09/18 10:45 am 1.44 ft 246 cfs
Tue09/18 10:30 am 1.44 ft 246 cfs
Tue09/18 10:15 am 1.44 ft 246 cfs
Tue09/18 10:00 am 1.44 ft 246 cfs
Tue09/18 09:45 am 1.46 ft 251 cfs

Latest Forecasts

Currently Forecasted Readings:
Tue09/18 05:00 pm 1.37 ft 229 cfs
Tue09/18 11:00 pm 1.3 ft 215 cfs
Wed09/19 05:00 am 1.24 ft 201 cfs
Wed09/19 11:00 am 1.17 ft 187 cfs
Wed09/19 05:00 pm 1.1 ft 174 cfs
Wed09/19 11:00 pm 1.12 ft 178 cfs
Thu09/20 05:00 am 1.11 ft 176 cfs
Thu09/20 11:00 am 1.09 ft 173 cfs
Thu09/20 05:00 pm 1.11 ft 176 cfs
Thu09/20 11:00 pm 1.31 ft 216 cfs
Fri09/21 05:00 am 1.35 ft 226 cfs
Fri09/21 11:00 am 2.14 ft 450 cfs
Fri09/21 05:00 pm 2.81 ft 725 cfs
Fri09/21 11:00 pm 3.27 ft 968 cfs
Sat09/22 05:00 am 3.68 ft 1222 cfs
Sat09/22 11:00 am 3.59 ft 1162 cfs
Sat09/22 05:00 pm 3.24 ft 952 cfs
Sat09/22 11:00 pm 2.72 ft 683 cfs
Sun09/23 05:00 am 2.01 ft 407 cfs
Sun09/23 11:00 am 1.72 ft 318 cfs
Sun09/23 05:00 pm 1.63 ft 295 cfs
Sun09/23 11:00 pm 1.52 ft 264 cfs
Mon09/24 05:00 am 1.48 ft 254 cfs
Mon09/24 11:00 am 1.42 ft 241 cfs
Mon09/24 05:00 pm 1.38 ft 231 cfs
Mon09/24 11:00 pm 1.34 ft 223 cfs
Tue09/25 05:00 am 1.3 ft 216 cfs
Tue09/25 11:00 am 1.27 ft 209 cfs
Tue09/25 05:00 pm 1.25 ft 203 cfs
Tue09/25 11:00 pm 1.22 ft 197 cfs
Wed09/26 05:00 am 1.19 ft 192 cfs
Wed09/26 11:00 am 1.17 ft 187 cfs
Wed09/26 05:00 pm 1.14 ft 182 cfs
Wed09/26 11:00 pm 1.12 ft 179 cfs
Thu09/27 05:00 am 1.1 ft 174 cfs
Thu09/27 11:00 am 1.08 ft 171 cfs
Thu09/27 05:00 pm 1.06 ft 168 cfs
Thu09/27 11:00 pm 1.05 ft 165 cfs
Fri09/28 05:00 am 1.16 ft 185 cfs

Snoqualmie River flood gauge data supplied by the
National Weather Service Northwest River Forecast Center.

Sign up for Floodzilla alerts.